createdAt,value
2022-09-07T00:01:57.343Z,30.19
2022-09-07T00:04:46.095Z,30.17
2022-09-07T00:07:28.352Z,30.13
2022-09-07T00:10:17.002Z,30.14
2022-09-07T00:13:07.025Z,30.10
2022-09-07T00:15:49.376Z,30.14
2022-09-07T00:18:40.284Z,30.09
2022-09-07T00:21:31.076Z,30.13
2022-09-07T00:24:13.780Z,30.07
2022-09-07T00:27:06.427Z,30.05
2022-09-07T00:29:49.211Z,30.03
2022-09-07T00:32:38.687Z,30.03
2022-09-07T00:35:22.179Z,30.02
2022-09-07T00:38:10.228Z,30.02
2022-09-07T00:40:52.743Z,30.03
2022-09-07T00:43:46.450Z,30.15
2022-09-07T00:46:42.819Z,30.11
2022-09-07T00:49:36.752Z,30.04
2022-09-07T00:52:22.117Z,30.01
2022-09-07T00:55:16.743Z,29.98
2022-09-07T00:58:06.753Z,30.01
2022-09-07T01:00:52.006Z,30.02
2022-09-07T01:03:46.715Z,30.05
2022-09-07T01:06:37.036Z,30.02
2022-09-07T01:09:32.709Z,30.07
2022-09-07T01:12:15.202Z,30.13
2022-09-07T01:15:04.014Z,30.12
2022-09-07T01:18:11.071Z,30.21
2022-09-07T01:21:20.696Z,30.24
2022-09-07T01:24:26.078Z,30.21
2022-09-07T01:27:29.572Z,30.30
2022-09-07T01:30:20.766Z,30.29
2022-09-07T01:33:28.382Z,30.39
2022-09-07T01:36:30.781Z,30.50
2022-09-07T01:39:13.457Z,30.48
2022-09-07T01:42:33.365Z,30.54
2022-09-07T01:45:18.450Z,30.60
2022-09-07T01:48:13.768Z,30.67
2022-09-07T01:51:10.203Z,30.77
2022-09-07T01:53:59.791Z,30.79
2022-09-07T01:56:47.070Z,30.88
2022-09-07T01:59:44.778Z,30.91
2022-09-07T02:02:35.840Z,31.07
2022-09-07T02:05:40.158Z,31.14
2022-09-07T02:09:00.786Z,31.31
2022-09-07T02:11:55.960Z,31.48
2022-09-07T02:14:52.852Z,31.58
2022-09-07T02:17:39.506Z,31.52
2022-09-07T02:20:35.120Z,31.65
2022-09-07T02:23:22.543Z,31.60
2022-09-07T02:26:17.798Z,31.76
2022-09-07T02:29:07.511Z,31.85
2022-09-07T02:31:51.747Z,31.95
2022-09-07T02:34:41.193Z,32.00
2022-09-07T02:37:24.437Z,32.00
2022-09-07T02:40:12.883Z,31.95
2022-09-07T02:42:55.346Z,32.08
2022-09-07T02:46:21.719Z,32.15
2022-09-07T02:49:27.178Z,32.10
2022-09-07T02:52:30.201Z,31.93
2022-09-07T02:55:37.214Z,32.34
2022-09-07T02:58:37.122Z,32.36
2022-09-07T03:01:56.292Z,32.43
2022-09-07T03:05:02.084Z,32.71
2022-09-07T03:08:08.757Z,32.85
2022-09-07T03:10:58.766Z,32.71
2022-09-07T03:13:47.749Z,32.76
2022-09-07T03:16:30.038Z,32.91
2022-09-07T03:19:19.194Z,32.71
2022-09-07T03:22:08.772Z,32.99
2022-09-07T03:24:52.564Z,32.77
2022-09-07T03:27:41.757Z,33.01
2022-09-07T03:30:24.596Z,33.15
2022-09-07T03:33:13.761Z,33.24
2022-09-07T03:36:09.507Z,33.29
2022-09-07T03:38:52.216Z,33.42
2022-09-07T03:41:41.051Z,33.54
2022-09-07T03:44:24.188Z,33.52
2022-09-07T03:47:19.749Z,33.63
2022-09-07T03:50:09.076Z,33.58
2022-09-07T03:52:51.748Z,33.58
2022-09-07T03:55:40.533Z,33.40
2022-09-07T03:58:24.110Z,33.70
2022-09-07T04:01:12.837Z,33.68
2022-09-07T04:04:02.828Z,33.72
2022-09-07T04:06:51.984Z,33.87
2022-09-07T04:09:34.322Z,34.01
2022-09-07T04:12:22.982Z,34.20
2022-09-07T04:15:05.292Z,34.36
2022-09-07T04:17:53.994Z,34.24
2022-09-07T04:20:37.060Z,34.29
2022-09-07T04:23:26.740Z,34.63
2022-09-07T04:26:16.002Z,34.68
2022-09-07T04:29:05.371Z,34.78
2022-09-07T04:31:47.730Z,34.76
2022-09-07T04:34:37.268Z,34.68
2022-09-07T04:37:19.901Z,34.85
2022-09-07T04:40:08.112Z,34.85
2022-09-07T04:42:50.741Z,34.84
2022-09-07T04:45:40.006Z,34.75
2022-09-07T04:48:35.995Z,34.48
2022-09-07T04:51:25.288Z,34.42
2022-09-07T04:54:09.754Z,34.42
2022-09-07T04:56:58.077Z,34.51
2022-09-07T04:59:40.981Z,34.65
2022-09-07T05:02:29.395Z,34.92
2022-09-07T05:05:11.770Z,35.10
2022-09-07T05:07:59.998Z,35.25
2022-09-07T05:10:41.752Z,35.34
2022-09-07T05:13:24.237Z,35.61
2022-09-07T05:16:14.950Z,35.90
2022-09-07T05:19:16.746Z,35.52
2022-09-07T05:22:06.035Z,36.12
2022-09-07T05:24:48.014Z,36.26
2022-09-07T05:27:36.753Z,36.19
2022-09-07T05:36:32.616Z,36.45
2022-09-07T05:39:21.999Z,36.55
2022-09-07T05:42:11.032Z,36.25
2022-09-07T05:45:00.204Z,36.43
2022-09-07T05:47:54.684Z,37.03
2022-09-07T05:50:37.225Z,36.83
2022-09-07T05:53:25.739Z,37.21
2022-09-07T05:56:09.274Z,36.93
2022-09-07T05:59:01.771Z,36.98
2022-09-07T06:01:44.000Z,37.11
2022-09-07T06:04:32.985Z,37.10
2022-09-07T06:07:21.946Z,37.04
2022-09-07T06:13:12.952Z,36.59
2022-09-07T06:16:02.005Z,36.30
2022-09-07T06:18:46.189Z,37.05
2022-09-07T06:21:37.996Z,36.88
2022-09-07T06:24:19.971Z,37.43
2022-09-07T06:27:08.644Z,37.70
2022-09-07T06:29:57.998Z,37.01
2022-09-07T06:32:43.689Z,36.74
2022-09-07T06:35:32.658Z,36.38
2022-09-07T06:38:15.297Z,36.54
2022-09-07T06:44:10.299Z,36.21
2022-09-07T06:49:54.836Z,36.73
2022-09-07T06:55:52.168Z,36.49
2022-09-07T06:58:42.501Z,36.85
2022-09-07T07:01:27.340Z,36.47
2022-09-07T07:04:15.992Z,36.74
2022-09-07T07:06:58.037Z,37.01
2022-09-07T07:09:46.921Z,36.90
2022-09-07T07:15:19.226Z,37.01
2022-09-07T07:18:30.933Z,36.90
2022-09-07T07:21:14.746Z,36.83
2022-09-07T07:23:57.432Z,36.87
2022-09-07T07:26:48.010Z,37.26
2022-09-07T07:29:29.966Z,37.11
2022-09-07T07:32:18.736Z,36.57
2022-09-07T07:35:01.168Z,36.46
2022-09-07T07:37:50.628Z,36.66
2022-09-07T07:40:34.178Z,35.82
2022-09-07T07:43:25.013Z,35.90
2022-09-07T07:46:14.057Z,36.28
2022-09-07T07:49:09.996Z,36.34
2022-09-07T07:55:42.847Z,35.87
2022-09-07T07:58:11.574Z,35.94
2022-09-07T08:00:56.467Z,35.89
2022-09-07T08:03:47.706Z,36.12
2022-09-07T08:06:37.706Z,36.50
2022-09-07T08:09:19.918Z,36.50
2022-09-07T08:12:09.651Z,36.70
2022-09-07T08:14:58.865Z,36.83
2022-09-07T08:17:48.239Z,37.21
2022-09-07T08:20:30.161Z,37.27
2022-09-07T08:23:18.722Z,37.40
2022-09-07T08:26:08.282Z,37.17
2022-09-07T08:28:54.845Z,37.35
2022-09-07T08:31:43.922Z,37.42
2022-09-07T08:34:26.235Z,36.73
2022-09-07T08:37:15.694Z,37.10
2022-09-07T08:40:05.008Z,37.20
2022-09-07T08:43:33.223Z,37.30
2022-09-07T08:46:45.808Z,37.30
2022-09-07T08:50:00.565Z,37.10
2022-09-07T08:53:00.983Z,37.01
2022-09-07T08:55:54.225Z,36.75
2022-09-07T08:58:52.738Z,36.77
2022-09-07T09:01:42.301Z,36.93
2022-09-07T09:08:08.104Z,36.82
2022-09-07T09:11:07.913Z,36.92
2022-09-07T09:14:00.600Z,36.95
2022-09-07T09:16:58.870Z,36.94
2022-09-07T09:20:08.684Z,37.17
2022-09-07T09:22:54.013Z,36.59
2022-09-07T09:25:49.850Z,36.99
2022-09-07T09:28:36.633Z,36.87
2022-09-07T09:31:43.774Z,36.60
2022-09-07T09:34:36.027Z,36.49
2022-09-07T09:37:35.659Z,36.41
2022-09-07T09:40:40.642Z,36.58
2022-09-07T09:43:35.212Z,36.42
2022-09-07T09:46:34.624Z,36.21
2022-09-07T09:49:34.033Z,35.87
2022-09-07T09:52:45.081Z,35.53
2022-09-07T09:55:44.699Z,35.41
2022-09-07T10:04:58.652Z,35.22
2022-09-07T10:08:01.963Z,35.29
2022-09-07T10:11:10.457Z,35.44
2022-09-07T10:14:05.604Z,35.42
2022-09-07T10:16:55.747Z,35.39
2022-09-07T10:19:45.724Z,35.35
2022-09-07T10:22:39.338Z,35.32
2022-09-07T10:25:54.778Z,35.26
2022-09-07T10:32:34.876Z,35.03
2022-09-07T10:36:04.735Z,35.17
2022-09-07T10:39:05.697Z,35.17
2022-09-07T10:42:11.722Z,35.20
2022-09-07T10:45:15.029Z,35.31
2022-09-07T10:48:29.000Z,35.38
2022-09-07T10:51:44.162Z,35.39
2022-09-07T10:54:44.569Z,35.21
2022-09-07T10:58:03.051Z,35.30
2022-09-07T11:01:24.093Z,35.52
2022-09-07T11:04:59.042Z,35.48
2022-09-07T11:08:08.707Z,35.41
2022-09-07T11:11:16.047Z,35.74
2022-09-07T11:14:19.661Z,35.54
2022-09-07T11:17:21.041Z,35.57
2022-09-07T11:20:27.051Z,35.62
2022-09-07T11:23:23.255Z,35.51
2022-09-07T11:26:45.599Z,35.41
2022-09-07T11:30:11.890Z,35.35
2022-09-07T11:33:08.357Z,35.24
2022-09-07T11:36:20.544Z,35.04
2022-09-07T11:39:29.585Z,35.16
2022-09-07T11:42:50.943Z,35.24
2022-09-07T11:45:50.776Z,34.90
2022-09-07T11:48:58.858Z,34.97
2022-09-07T11:51:40.989Z,34.98
2022-09-07T11:55:00.605Z,34.52
2022-09-07T11:58:42.893Z,34.95
2022-09-07T12:01:41.432Z,34.80
2022-09-07T12:04:56.055Z,34.29
2022-09-07T12:07:59.698Z,34.58
2022-09-07T12:10:53.642Z,34.49
2022-09-07T12:13:59.903Z,34.64
2022-09-07T12:17:09.033Z,34.37
2022-09-07T12:20:22.629Z,34.66
2022-09-07T12:23:34.702Z,34.66
2022-09-07T12:26:45.175Z,34.13
2022-09-07T12:29:32.054Z,34.20
2022-09-07T12:32:54.228Z,34.32
2022-09-07T12:35:49.056Z,34.35
2022-09-07T12:38:45.616Z,34.44
2022-09-07T12:41:39.700Z,34.36
2022-09-07T12:44:31.330Z,34.26
2022-09-07T12:47:33.713Z,34.25
2022-09-07T12:50:51.327Z,34.14
2022-09-07T12:53:52.093Z,34.13
2022-09-07T13:00:36.607Z,34.08
2022-09-07T13:03:52.983Z,34.03
2022-09-07T13:07:12.700Z,33.99
2022-09-07T13:09:59.553Z,33.91
2022-09-07T13:12:59.953Z,33.68
2022-09-07T13:16:23.897Z,33.82
2022-09-07T13:19:18.070Z,33.76
2022-09-07T13:22:00.151Z,33.81
2022-09-07T13:25:12.595Z,33.82
2022-09-07T13:28:08.688Z,33.75
2022-09-07T13:31:25.058Z,33.67
2022-09-07T13:34:47.599Z,33.66
2022-09-07T13:37:35.592Z,33.49
2022-09-07T13:40:35.045Z,33.69
2022-09-07T13:43:35.848Z,33.60
2022-09-07T13:46:54.502Z,33.55
2022-09-07T13:50:18.610Z,33.53
2022-09-07T13:53:52.873Z,33.47
2022-09-07T13:57:08.650Z,33.57
2022-09-07T14:00:21.012Z,33.59
2022-09-07T14:03:23.071Z,33.42
2022-09-07T14:06:36.967Z,33.43
2022-09-07T14:09:37.937Z,33.35
2022-09-07T14:12:33.749Z,33.32
2022-09-07T14:15:56.578Z,33.36
2022-09-07T14:19:00.358Z,33.37
2022-09-07T14:21:43.850Z,33.27
2022-09-07T14:24:46.031Z,33.28
2022-09-07T14:27:41.218Z,33.32
2022-09-07T14:30:36.043Z,33.23
2022-09-07T14:33:24.210Z,33.20
2022-09-07T14:36:41.668Z,33.14
2022-09-07T14:39:30.532Z,33.22
2022-09-07T14:42:32.112Z,33.25
2022-09-07T14:45:42.059Z,33.22
2022-09-07T14:48:34.405Z,33.16
2022-09-07T14:51:38.878Z,33.18
2022-09-07T14:54:36.724Z,33.13
2022-09-07T14:57:27.684Z,33.14
2022-09-07T15:04:32.861Z,33.06
2022-09-07T15:07:38.600Z,32.95
2022-09-07T15:11:32.877Z,33.00
2022-09-07T15:14:24.208Z,33.00
2022-09-07T15:17:42.930Z,33.01
2022-09-07T15:20:53.022Z,32.99
2022-09-07T15:23:41.684Z,32.90
2022-09-07T15:29:42.930Z,32.94
2022-09-07T15:32:32.025Z,32.96
2022-09-07T15:35:22.692Z,32.92
2022-09-07T15:41:24.180Z,32.86
2022-09-07T15:44:21.539Z,32.85
2022-09-07T15:50:28.716Z,32.85
2022-09-07T15:56:28.976Z,32.73
2022-09-07T15:59:22.046Z,32.64
2022-09-07T16:05:32.712Z,32.69
2022-09-07T16:08:25.680Z,32.62
2022-09-07T16:11:23.944Z,32.62
2022-09-07T16:14:18.632Z,32.60
2022-09-07T16:20:08.630Z,32.69
2022-09-07T16:23:15.210Z,32.61
2022-09-07T16:26:11.095Z,32.54
2022-09-07T16:29:01.623Z,32.23
2022-09-07T16:34:56.682Z,32.57
2022-09-07T16:41:01.728Z,32.49
2022-09-07T16:43:52.668Z,32.45
2022-09-07T16:46:45.680Z,32.42
2022-09-07T16:49:33.448Z,32.25
2022-09-07T16:52:21.703Z,32.24
2022-09-07T16:55:14.751Z,32.27
2022-09-07T17:01:24.794Z,32.18
2022-09-07T17:04:11.472Z,32.19
2022-09-07T17:07:07.751Z,32.15
2022-09-07T17:09:54.099Z,32.27
2022-09-07T17:12:45.686Z,32.09
2022-09-07T17:15:35.812Z,32.12
2022-09-07T17:18:18.959Z,32.02
2022-09-07T17:21:12.282Z,32.13
2022-09-07T17:23:56.945Z,32.22
2022-09-07T17:26:50.105Z,32.04
2022-09-07T17:29:45.003Z,32.04
2022-09-07T17:32:27.961Z,31.96
2022-09-07T17:35:10.980Z,31.99
2022-09-07T17:38:01.406Z,31.96
2022-09-07T17:40:54.871Z,32.02
2022-09-07T17:43:53.589Z,32.04
2022-09-07T17:46:47.072Z,32.00
2022-09-07T17:49:30.476Z,31.95
2022-09-07T17:52:19.045Z,31.97
2022-09-07T17:55:03.078Z,31.91
2022-09-07T17:57:52.647Z,31.95
2022-09-07T18:00:36.886Z,31.97
2022-09-07T18:03:35.678Z,31.91
2022-09-07T18:06:26.868Z,31.90
2022-09-07T18:09:12.610Z,31.98
2022-09-07T18:12:01.843Z,32.06
2022-09-07T18:14:52.609Z,32.08
2022-09-07T18:17:42.417Z,32.11
2022-09-07T18:20:24.671Z,32.03
2022-09-07T18:23:08.851Z,32.09
2022-09-07T18:25:59.698Z,32.06
2022-09-07T18:29:10.454Z,32.09
2022-09-07T18:32:01.136Z,32.04
2022-09-07T18:34:50.804Z,32.08
2022-09-07T18:37:33.069Z,32.06
2022-09-07T18:40:23.926Z,32.06
2022-09-07T18:43:13.722Z,32.04
2022-09-07T18:46:09.480Z,32.04
2022-09-07T18:48:54.045Z,32.00
2022-09-07T18:54:39.995Z,32.00
2022-09-07T18:57:23.272Z,31.99
2022-09-07T19:00:16.165Z,32.00
2022-09-07T19:02:59.727Z,31.95
2022-09-07T19:05:50.354Z,31.92
2022-09-07T19:08:37.957Z,31.91
2022-09-07T19:11:32.954Z,31.92
2022-09-07T19:14:23.703Z,31.90
2022-09-07T19:17:06.092Z,31.90
2022-09-07T19:19:55.985Z,31.89
2022-09-07T19:22:38.432Z,31.88
2022-09-07T19:25:26.768Z,31.87
2022-09-07T19:28:15.495Z,31.90
2022-09-07T19:30:58.009Z,31.87
2022-09-07T19:33:40.255Z,31.86
2022-09-07T19:36:28.609Z,31.86
2022-09-07T19:39:12.263Z,31.86
2022-09-07T19:42:01.043Z,31.89
2022-09-07T19:44:50.324Z,31.85
2022-09-07T19:47:32.964Z,31.83
2022-09-07T19:50:22.005Z,31.85
2022-09-07T19:53:04.459Z,31.79
2022-09-07T19:55:52.812Z,31.82
2022-09-07T19:58:34.967Z,31.77
2022-09-07T20:01:27.952Z,31.80
2022-09-07T20:04:20.685Z,31.79
2022-09-07T20:07:15.865Z,31.72
2022-09-07T20:10:04.701Z,31.74
2022-09-07T20:12:47.336Z,31.68
2022-09-07T20:15:36.596Z,31.68
2022-09-07T20:18:24.618Z,31.65
2022-09-07T20:21:15.706Z,31.64
2022-09-07T20:23:59.057Z,31.60
2022-09-07T20:26:47.657Z,31.63
2022-09-07T20:29:32.713Z,31.57
2022-09-07T20:32:21.676Z,31.54
2022-09-07T20:35:04.317Z,31.51
2022-09-07T20:37:52.663Z,31.51
2022-09-07T20:40:34.978Z,31.49
2022-09-07T20:43:23.661Z,31.49
2022-09-07T20:46:10.486Z,31.50
2022-09-07T20:48:58.892Z,31.48
2022-09-07T20:51:41.054Z,31.51
2022-09-07T20:54:31.336Z,31.48
2022-09-07T20:57:14.031Z,31.42
2022-09-07T21:00:02.565Z,31.44
2022-09-07T21:02:44.002Z,31.44
2022-09-07T21:05:32.954Z,31.45
2022-09-07T21:08:28.597Z,31.46
2022-09-07T21:11:29.979Z,31.41
2022-09-07T21:14:15.352Z,31.45
2022-09-07T21:17:03.870Z,31.41
2022-09-07T21:19:47.240Z,31.38
2022-09-07T21:22:39.824Z,31.39
2022-09-07T21:25:21.969Z,31.40
2022-09-07T21:28:10.720Z,31.42
2022-09-07T21:31:00.245Z,31.42
2022-09-07T21:33:48.676Z,31.44
2022-09-07T21:36:35.272Z,31.37
2022-09-07T21:39:26.224Z,31.41
2022-09-07T21:42:14.853Z,31.34
2022-09-07T21:45:03.690Z,31.36
2022-09-07T21:47:47.303Z,31.34
2022-09-07T21:50:35.674Z,31.36
2022-09-07T21:53:20.093Z,31.35
2022-09-07T21:56:13.721Z,31.35
2022-09-07T21:58:56.338Z,31.32
2022-09-07T22:05:46.994Z,31.31
2022-09-07T22:08:35.674Z,31.34
2022-09-07T22:11:27.823Z,31.33
2022-09-07T22:14:18.930Z,31.34
2022-09-07T22:17:01.316Z,31.31
2022-09-07T22:19:50.290Z,31.35
2022-09-07T22:26:54.625Z,31.45
2022-09-07T22:29:37.028Z,31.38
2022-09-07T22:32:25.701Z,31.36
2022-09-07T22:35:07.933Z,31.34
2022-09-07T22:37:56.609Z,31.33
2022-09-07T22:40:39.185Z,31.33
2022-09-07T22:43:27.877Z,31.32
2022-09-07T22:46:10.054Z,31.30
2022-09-07T22:48:58.658Z,31.32
2022-09-07T22:51:48.679Z,31.31
2022-09-07T22:54:30.915Z,31.34
2022-09-07T22:57:19.910Z,31.29
2022-09-07T23:00:02.126Z,31.31
2022-09-07T23:02:50.670Z,31.32
2022-09-07T23:05:38.263Z,31.30
2022-09-07T23:08:33.910Z,31.24
2022-09-07T23:11:28.936Z,31.26
2022-09-07T23:14:22.952Z,31.34
2022-09-07T23:17:11.681Z,31.28
2022-09-07T23:20:00.714Z,31.25
2022-09-07T23:22:43.409Z,31.25
2022-09-07T23:25:31.696Z,31.24
2022-09-07T23:28:14.929Z,31.21
2022-09-07T23:31:03.849Z,31.21
2022-09-07T23:33:52.903Z,31.26
2022-09-07T23:36:35.368Z,31.29
2022-09-07T23:39:23.832Z,31.22
2022-09-07T23:42:12.911Z,31.22
2022-09-07T23:44:54.952Z,31.20
2022-09-07T23:47:43.661Z,31.19
2022-09-07T23:50:25.976Z,31.12
2022-09-07T23:53:14.916Z,31.16
2022-09-07T23:55:59.246Z,31.16
2022-09-07T23:58:47.961Z,31.17
